Time;durP1;ratioP1;P1;durP2;ratioP2;P2;SDS_P1;SDS_P2;PMS_P1;PMS_P2;Temp;Humidity;BMP_temperature;BMP_pressure;BME280_temperature;BME280_humidity;BME280_pressure;Samples;Min_cycle;Max_cycle;Signal;HPM_P1;HPM_P2
2023/05/20 00:02:19;;;;;;;4.25;2.33;;;16.20;62.40;;;;;;5012390;28;20605;-51
2023/05/20 00:04:52;;;;;;;4.70;2.30;;;16.20;62.40;;;;;;5012664;28;20200;-50
2023/05/20 00:07:23;;;;;;;4.10;2.63;;;16.20;62.30;;;;;;5012293;28;20201;-52
2023/05/20 00:09:53;;;;;;;4.45;2.38;;;16.20;62.30;;;;;;5012400;28;20232;-51
2023/05/20 00:12:24;;;;;;;3.90;2.60;;;16.20;62.40;;;;;;5012449;28;20201;-51
2023/05/20 00:14:55;;;;;;;3.92;2.17;;;16.20;62.40;;;;;;5011798;28;20223;-50
2023/05/20 00:17:30;;;;;;;3.28;2.60;;;16.20;63.10;;;;;;5011256;28;20197;-53
2023/05/20 00:20:01;;;;;;;3.15;2.22;;;16.20;62.40;;;;;;5012700;28;20684;-50
2023/05/20 00:22:31;;;;;;;4.10;2.22;;;16.20;62.30;;;;;;5012295;28;20534;-51
2023/05/20 00:25:02;;;;;;;2.35;1.95;;;16.20;62.40;;;;;;5012355;28;20196;-51
2023/05/20 00:27:33;;;;;;;3.47;2.30;;;16.20;62.40;;;;;;5012513;28;20200;-52
2023/05/20 00:30:03;;;;;;;2.67;2.10;;;16.20;62.40;;;;;;5011759;28;20311;-49
2023/05/20 00:32:36;;;;;;;4.00;2.30;;;16.30;62.50;;;;;;5011898;28;20200;-49
2023/05/20 00:35:07;;;;;;;4.20;2.67;;;16.30;62.50;;;;;;5012191;28;20204;-49
2023/05/20 00:37:38;;;;;;;3.58;2.20;;;16.30;62.40;;;;;;5011822;28;20193;-50
2023/05/20 00:40:09;;;;;;;2.63;1.98;;;16.30;62.40;;;;;;5011919;28;20224;-50
2023/05/20 00:42:40;;;;;;;3.65;2.35;;;16.30;62.40;;;;;;5011944;28;20219;-49
2023/05/20 00:45:11;;;;;;;6.25;3.15;;;16.30;62.40;;;;;;5012049;28;20196;-50
2023/05/20 00:47:45;;;;;;;3.50;2.17;;;16.30;62.50;;;;;;5011709;28;20200;-51
2023/05/20 00:50:16;;;;;;;1.60;1.10;;;16.30;62.70;;;;;;5011504;28;20224;-55
2023/05/20 00:52:47;;;;;;;1.75;1.17;;;16.30;62.80;;;;;;5011859;28;20204;-54
2023/05/20 00:55:17;;;;;;;2.03;1.55;;;16.30;63.10;;;;;;5012182;28;20192;-53
2023/05/20 00:57:48;;;;;;;1.50;1.30;;;16.30;63.50;;;;;;4994429;28;20708;-54
2023/05/20 01:00:19;;;;;;;2.60;1.65;;;16.30;63.90;;;;;;4992000;28;20236;-55
2023/05/20 01:02:52;;;;;;;1.25;1.15;;;16.30;64.20;;;;;;4991766;28;20209;-51
2023/05/20 01:05:22;;;;;;;1.13;1.02;;;16.30;64.50;;;;;;4991656;28;20202;-53
2023/05/20 01:07:53;;;;;;;1.38;0.90;;;16.40;64.80;;;;;;4991146;28;20642;-52
2023/05/20 01:10:26;;;;;;;1.13;0.95;;;16.40;64.90;;;;;;5005446;28;20251;-54
2023/05/20 01:12:59;;;;;;;1.02;1.00;;;16.40;65.10;;;;;;5011681;28;20193;-54
2023/05/20 01:15:30;;;;;;;3.03;1.70;;;16.40;65.30;;;;;;5011173;28;20207;-51
2023/05/20 01:18:05;;;;;;;1.55;1.40;;;16.40;65.50;;;;;;5011499;28;20201;-53
2023/05/20 01:20:36;;;;;;;1.23;0.90;;;16.40;65.70;;;;;;5011445;28;20247;-52
2023/05/20 01:23:09;;;;;;;1.20;1.10;;;16.40;65.70;;;;;;5010383;28;20204;-50
2023/05/20 01:25:41;;;;;;;1.20;1.10;;;16.40;65.70;;;;;;5011486;28;20201;-51
2023/05/20 01:28:16;;;;;;;2.28;1.50;;;16.50;66.50;;;;;;5014598;28;20239;-53
2023/05/20 01:30:53;;;;;;;1.85;1.63;;;16.50;65.70;;;;;;5015247;28;20216;-50
2023/05/20 01:33:26;;;;;;;3.67;2.13;;;16.50;65.70;;;;;;5015313;28;20607;-50
2023/05/20 01:35:58;;;;;;;2.67;1.90;;;16.50;65.80;;;;;;5015240;28;20204;-52
2023/05/20 01:38:31;;;;;;;1.45;1.20;;;16.50;65.90;;;;;;5015575;28;20565;-50
2023/05/20 01:41:04;;;;;;;1.27;1.17;;;16.50;65.90;;;;;;5014918;28;20220;-50
2023/05/20 01:43:36;;;;;;;0.85;0.85;;;16.60;66.20;;;;;;5014460;28;20641;-51
2023/05/20 01:46:09;;;;;;;1.30;1.10;;;16.60;66.10;;;;;;5014749;28;20197;-53
2023/05/20 01:48:39;;;;;;;1.35;1.00;;;16.60;65.90;;;;;;5014787;28;20235;-51
2023/05/20 01:51:10;;;;;;;3.80;2.65;;;16.70;65.90;;;;;;5014660;28;20224;-53
2023/05/20 01:53:43;;;;;;;2.33;2.13;;;16.70;65.90;;;;;;5015346;28;20230;-51
2023/05/20 01:56:13;;;;;;;2.03;1.83;;;16.70;66.70;;;;;;5014934;28;20197;-49
2023/05/20 01:58:44;;;;;;;2.30;2.10;;;16.70;66.10;;;;;;5012776;28;20675;-51
2023/05/20 02:01:14;;;;;;;2.22;2.03;;;16.70;66.10;;;;;;5015214;28;20221;-51
2023/05/20 02:03:45;;;;;;;2.25;2.05;;;16.70;66.90;;;;;;5014824;28;20225;-55
2023/05/20 02:06:16;;;;;;;2.28;1.58;;;16.70;66.10;;;;;;5014431;28;20654;-50
2023/05/20 02:08:48;;;;;;;1.55;1.35;;;16.70;66.20;;;;;;5014113;28;20275;-49
2023/05/20 02:11:19;;;;;;;1.50;1.13;;;16.70;67.00;;;;;;5014155;28;20216;-50
2023/05/20 02:13:50;;;;;;;1.15;1.05;;;16.70;66.20;;;;;;5014381;28;20686;-50
2023/05/20 02:16:21;;;;;;;1.40;1.10;;;16.70;66.30;;;;;;5014871;28;20201;-49
2023/05/20 02:18:52;;;;;;;1.40;1.30;;;16.70;66.40;;;;;;5014947;28;20196;-50
2023/05/20 02:21:23;;;;;;;1.20;1.10;;;16.70;66.50;;;;;;5013893;28;20256;-50
2023/05/20 02:23:55;;;;;;;1.38;1.27;;;16.70;66.50;;;;;;5014689;28;20288;-50
2023/05/20 02:26:26;;;;;;;1.50;1.40;;;16.70;66.50;;;;;;5014211;28;20193;-49
2023/05/20 02:28:56;;;;;;;1.45;1.20;;;16.80;66.70;;;;;;5014556;28;20227;-49
2023/05/20 02:31:27;;;;;;;1.60;1.27;;;16.80;66.70;;;;;;5014233;28;20228;-49
2023/05/20 02:33:58;;;;;;;1.40;1.30;;;16.80;66.70;;;;;;5014045;28;20266;-49
2023/05/20 02:36:29;;;;;;;1.10;1.00;;;16.80;66.70;;;;;;5013658;28;20203;-49
2023/05/20 02:39:01;;;;;;;1.40;1.30;;;16.80;66.70;;;;;;5013653;28;20201;-49
2023/05/20 02:41:32;;;;;;;1.50;1.40;;;16.80;66.70;;;;;;5014090;28;20208;-51
2023/05/20 02:44:03;;;;;;;4.38;2.00;;;16.80;66.70;;;;;;5014093;28;20204;-49
2023/05/20 02:46:33;;;;;;;2.25;2.05;;;16.80;66.60;;;;;;5013949;28;20205;-51
2023/05/20 02:49:04;;;;;;;3.35;3.05;;;16.80;66.70;;;;;;5013668;28;20232;-49
2023/05/20 02:51:35;;;;;;;2.58;2.38;;;16.80;66.70;;;;;;5013614;28;20291;-49
2023/05/20 02:54:08;;;;;;;2.33;1.77;;;16.80;66.60;;;;;;5013828;28;20288;-50
2023/05/20 02:56:38;;;;;;;2.55;1.42;;;16.80;66.50;;;;;;5013984;28;20201;-49
2023/05/20 02:59:09;;;;;;;1.50;1.20;;;16.90;66.40;;;;;;5013945;28;20205;-49
2023/05/20 03:01:40;;;;;;;1.33;1.08;;;16.80;66.30;;;;;;5014097;28;20205;-50
2023/05/20 03:04:11;;;;;;;2.08;1.08;;;16.80;66.30;;;;;;5013562;28;20207;-52
2023/05/20 03:06:43;;;;;;;1.40;1.30;;;16.80;66.20;;;;;;5013104;28;20561;-51
2023/05/20 03:09:15;;;;;;;1.30;1.20;;;16.80;66.20;;;;;;5012752;28;20263;-50
2023/05/20 03:11:46;;;;;;;1.10;1.00;;;16.80;66.10;;;;;;5013397;28;20196;-49
2023/05/20 03:14:17;;;;;;;1.23;1.10;;;16.80;66.10;;;;;;5013607;28;20243;-50
2023/05/20 03:16:47;;;;;;;0.80;0.80;;;16.80;66.10;;;;;;5013662;28;20192;-50
2023/05/20 03:19:18;;;;;;;1.67;0.90;;;16.70;66.10;;;;;;5013234;28;20197;-51
2023/05/20 03:21:51;;;;;;;2.05;1.05;;;16.70;66.10;;;;;;5012292;28;20197;-50
2023/05/20 03:24:24;;;;;;;1.15;1.08;;;16.70;66.10;;;;;;5012965;28;20204;-49
2023/05/20 03:26:54;;;;;;;1.23;1.13;;;16.70;66.20;;;;;;5012915;28;20224;-52
2023/05/20 03:29:25;;;;;;;1.45;1.10;;;16.70;66.30;;;;;;5012833;28;20339;-49
2023/05/20 03:31:56;;;;;;;1.50;1.10;;;16.60;66.20;;;;;;5013019;28;20204;-49
2023/05/20 03:34:29;;;;;;;1.05;1.00;;;16.60;66.20;;;;;;5012728;28;20224;-49
2023/05/20 03:36:59;;;;;;;1.48;1.20;;;16.60;66.20;;;;;;5013082;28;20197;-51
2023/05/20 03:39:32;;;;;;;1.30;1.20;;;16.60;66.20;;;;;;5012952;28;20252;-52
2023/05/20 03:42:02;;;;;;;1.75;1.42;;;16.50;66.30;;;;;;5012902;28;20210;-53
2023/05/20 03:44:34;;;;;;;1.40;1.10;;;16.50;66.40;;;;;;5012352;28;20189;-51
2023/05/20 03:47:04;;;;;;;1.15;1.05;;;16.50;66.50;;;;;;5012912;28;20205;-51
2023/05/20 03:49:35;;;;;;;1.58;1.33;;;16.50;66.50;;;;;;5011807;28;20625;-53
2023/05/20 03:52:06;;;;;;;1.75;1.40;;;16.40;66.50;;;;;;5012305;28;20212;-53
2023/05/20 03:54:39;;;;;;;3.97;2.75;;;16.40;66.60;;;;;;5013178;28;20199;-51
2023/05/20 03:57:10;;;;;;;5.57;3.88;;;16.40;66.70;;;;;;5012800;28;20196;-50
2023/05/20 03:59:41;;;;;;;6.55;4.78;;;16.40;66.70;;;;;;5012489;28;20257;-51
2023/05/20 04:02:11;;;;;;;7.38;5.55;;;16.40;66.80;;;;;;5012336;28;20204;-53
2023/05/20 04:04:42;;;;;;;7.50;5.60;;;16.40;66.80;;;;;;5011756;28;20200;-50
2023/05/20 04:07:13;;;;;;;5.75;4.22;;;16.30;66.80;;;;;;5009944;28;20185;-52
2023/05/20 04:09:45;;;;;;;4.63;4.13;;;16.30;66.90;;;;;;5012243;28;20237;-53
2023/05/20 04:12:18;;;;;;;4.38;3.97;;;16.30;66.90;;;;;;5012733;28;20197;-56
2023/05/20 04:14:51;;;;;;;5.35;4.60;;;16.30;67.00;;;;;;5012719;28;20196;-54
2023/05/20 04:17:22;;;;;;;6.13;5.50;;;16.20;66.90;;;;;;5012802;28;20192;-55
2023/05/20 04:19:52;;;;;;;5.47;4.97;;;16.20;67.00;;;;;;5012141;28;20248;-50
2023/05/20 04:22:23;;;;;;;5.43;4.93;;;16.20;67.00;;;;;;5012072;28;20193;-50
2023/05/20 04:24:55;;;;;;;4.93;4.43;;;16.20;67.20;;;;;;5012084;28;20200;-52
2023/05/20 04:27:27;;;;;;;5.32;4.82;;;16.20;67.20;;;;;;5012222;28;20201;-51
2023/05/20 04:29:58;;;;;;;8.55;6.93;;;16.20;67.20;;;;;;5011985;28;20756;-50
2023/05/20 04:32:29;;;;;;;12.25;11.00;;;16.20;67.20;;;;;;5011430;28;20543;-51
2023/05/20 04:35:00;;;;;;;10.07;9.07;;;16.20;67.30;;;;;;5011416;28;20306;-50
2023/05/20 04:37:31;;;;;;;19.77;15.25;;;16.10;67.40;;;;;;5011950;28;20280;-49
2023/05/20 04:40:05;;;;;;;46.58;30.75;;;16.10;67.40;;;;;;5011945;28;20231;-49
2023/05/20 04:42:36;;;;;;;31.48;21.75;;;16.10;67.50;;;;;;5012158;28;20200;-48
2023/05/20 04:45:07;;;;;;;25.88;18.42;;;16.10;67.50;;;;;;5012008;28;20200;-49
2023/05/20 04:47:39;;;;;;;17.98;14.43;;;16.10;67.60;;;;;;5011747;28;20247;-52
2023/05/20 04:50:12;;;;;;;16.33;14.02;;;16.10;67.50;;;;;;5011231;28;20312;-49
2023/05/20 04:52:44;;;;;;;14.55;12.48;;;16.10;67.50;;;;;;5011523;28;20228;-50
2023/05/20 04:55:18;;;;;;;10.88;9.55;;;16.00;67.50;;;;;;5011441;28;20208;-53
2023/05/20 04:57:49;;;;;;;8.57;7.63;;;16.10;67.60;;;;;;5011506;28;20560;-49
2023/05/20 05:00:19;;;;;;;8.30;6.28;;;16.10;67.60;;;;;;5011608;28;20225;-50
2023/05/20 05:02:50;;;;;;;6.57;5.60;;;16.00;67.60;;;;;;5011720;28;20580;-49
2023/05/20 05:05:21;;;;;;;5.78;5.28;;;16.00;67.70;;;;;;5011090;28;20560;-51
2023/05/20 05:07:51;;;;;;;6.07;5.20;;;16.00;67.70;;;;;;5011238;28;20247;-53
2023/05/20 05:10:24;;;;;;;6.10;5.57;;;16.00;67.80;;;;;;5011453;28;20640;-49
2023/05/20 05:12:54;;;;;;;9.10;8.20;;;16.00;67.80;;;;;;5011656;28;20660;-52
2023/05/20 05:15:25;;;;;;;9.77;8.75;;;16.00;67.80;;;;;;5011449;28;20541;-51
2023/05/20 05:17:56;;;;;;;7.32;6.63;;;16.00;67.70;;;;;;5011200;28;20196;-51
2023/05/20 05:20:26;;;;;;;6.45;5.40;;;16.00;67.70;;;;;;5010790;28;20220;-50
2023/05/20 05:22:57;;;;;;;6.22;5.63;;;16.10;67.60;;;;;;5011583;28;20197;-49
2023/05/20 05:25:30;;;;;;;6.70;6.07;;;16.10;67.60;;;;;;5011688;28;20199;-52
2023/05/20 05:28:00;;;;;;;6.28;5.25;;;16.10;67.90;;;;;;5011664;28;20200;-53
2023/05/20 05:30:31;;;;;;;6.97;5.18;;;16.10;67.90;;;;;;5011009;28;20255;-50
2023/05/20 05:33:01;;;;;;;4.70;4.30;;;16.20;68.00;;;;;;5011171;28;20196;-52
2023/05/20 05:35:32;;;;;;;5.03;4.35;;;16.20;67.90;;;;;;5011125;28;20200;-50
2023/05/20 05:38:03;;;;;;;4.40;4.00;;;16.20;67.80;;;;;;5011133;28;20208;-51
2023/05/20 05:40:35;;;;;;;4.45;4.05;;;16.20;67.70;;;;;;5010787;28;20217;-50
2023/05/20 05:43:06;;;;;;;4.00;3.70;;;16.30;67.60;;;;;;5011677;28;20204;-52
2023/05/20 05:45:37;;;;;;;4.38;3.97;;;16.30;67.50;;;;;;5011218;28;20657;-53
2023/05/20 05:48:07;;;;;;;4.13;3.63;;;16.40;67.50;;;;;;5010665;28;20201;-54
2023/05/20 05:50:38;;;;;;;4.45;3.70;;;16.40;67.40;;;;;;5010683;28;20267;-50
2023/05/20 05:53:09;;;;;;;4.25;3.50;;;16.40;67.30;;;;;;5010884;28;20208;-54
2023/05/20 05:55:41;;;;;;;4.35;3.50;;;16.40;67.20;;;;;;5011104;28;20197;-50
2023/05/20 05:58:12;;;;;;;3.72;3.30;;;16.50;67.20;;;;;;5011551;28;20201;-50
2023/05/20 06:00:43;;;;;;;4.10;3.70;;;16.50;67.00;;;;;;5011223;28;20221;-50
2023/05/20 06:03:13;;;;;;;4.68;3.72;;;16.50;67.00;;;;;;5010730;28;20212;-54
2023/05/20 06:05:48;;;;;;;3.70;3.40;;;16.50;66.80;;;;;;5010874;28;20656;-50
2023/05/20 06:08:18;;;;;;;3.58;3.28;;;16.50;66.70;;;;;;5011115;28;20201;-50
2023/05/20 06:10:52;;;;;;;3.75;3.40;;;16.60;66.60;;;;;;5010832;28;20243;-53
2023/05/20 06:13:23;;;;;;;3.28;2.88;;;16.60;66.60;;;;;;5010977;28;20201;-59
2023/05/20 06:15:54;;;;;;;4.25;3.47;;;16.60;66.50;;;;;;5014639;28;20199;-54
2023/05/20 06:18:25;;;;;;;3.75;3.13;;;16.60;66.40;;;;;;5013643;28;20232;-55
2023/05/20 06:20:58;;;;;;;3.50;3.20;;;16.60;66.40;;;;;;5014575;28;20252;-54
2023/05/20 06:23:29;;;;;;;3.22;2.92;;;16.60;66.30;;;;;;5015158;28;20200;-53
2023/05/20 06:26:03;;;;;;;3.95;3.45;;;16.60;66.20;;;;;;5013780;28;20204;-57
2023/05/20 06:28:33;;;;;;;3.85;3.03;;;16.60;66.10;;;;;;5014050;28;20609;-52
2023/05/20 06:31:05;;;;;;;3.30;3.00;;;16.60;66.10;;;;;;5013750;28;20220;-54
2023/05/20 06:33:35;;;;;;;4.22;3.20;;;16.60;66.10;;;;;;5012886;28;20577;-49
2023/05/20 06:36:06;;;;;;;3.00;2.70;;;16.60;66.00;;;;;;5014322;28;20672;-56
2023/05/20 06:38:37;;;;;;;3.17;2.83;;;16.70;66.00;;;;;;5014394;28;20638;-55
2023/05/20 06:41:09;;;;;;;4.15;3.10;;;16.70;66.00;;;;;;5012682;28;20263;-56
2023/05/20 06:43:40;;;;;;;3.58;3.25;;;16.70;66.00;;;;;;5013695;28;20692;-53
2023/05/20 06:46:11;;;;;;;3.75;2.80;;;16.70;65.90;;;;;;5014042;28;20285;-58
2023/05/20 06:48:41;;;;;;;3.95;3.20;;;16.70;65.90;;;;;;5014058;28;20205;-52
2023/05/20 06:51:12;;;;;;;4.93;3.15;;;16.70;65.80;;;;;;5013893;28;20236;-56
2023/05/20 06:53:43;;;;;;;3.85;3.25;;;16.70;65.70;;;;;;5014054;28;20571;-54
2023/05/20 06:56:15;;;;;;;3.17;2.78;;;16.70;65.70;;;;;;5013583;28;20208;-54
2023/05/20 06:58:46;;;;;;;4.13;3.28;;;16.70;65.60;;;;;;5013687;28;20251;-58
2023/05/20 07:01:17;;;;;;;3.10;2.67;;;16.70;65.60;;;;;;5011854;28;20223;-57
2023/05/20 07:03:47;;;;;;;3.30;2.83;;;16.70;65.60;;;;;;5013675;28;20197;-55
2023/05/20 07:06:18;;;;;;;3.28;2.97;;;16.60;65.40;;;;;;5013620;28;20207;-51
2023/05/20 07:08:49;;;;;;;3.10;2.80;;;16.70;65.50;;;;;;5013864;28;20199;-53
2023/05/20 07:11:21;;;;;;;2.88;2.58;;;16.70;65.50;;;;;;5011608;28;20232;-52
2023/05/20 07:13:52;;;;;;;3.20;2.90;;;16.60;65.40;;;;;;5010177;28;20201;-54
2023/05/20 07:16:23;;;;;;;3.85;2.85;;;16.60;65.40;;;;;;5013192;28;20196;-53
2023/05/20 07:18:53;;;;;;;3.40;3.08;;;16.60;65.40;;;;;;5013129;28;20200;-51
2023/05/20 07:21:24;;;;;;;3.80;3.10;;;16.70;65.50;;;;;;5013794;28;20228;-55
2023/05/20 07:23:54;;;;;;;3.63;3.00;;;16.70;65.40;;;;;;5014130;28;20653;-54
2023/05/20 07:26:27;;;;;;;3.65;3.35;;;16.60;65.20;;;;;;5012742;28;20193;-53
2023/05/20 07:28:58;;;;;;;3.35;3.00;;;16.70;65.30;;;;;;5013436;28;20602;-54
2023/05/20 07:31:28;;;;;;;3.70;2.90;;;16.70;65.30;;;;;;5012191;28;20221;-52
2023/05/20 07:33:59;;;;;;;3.50;3.13;;;16.60;65.20;;;;;;5012477;28;20252;-49
2023/05/20 07:36:30;;;;;;;3.25;2.95;;;16.70;65.20;;;;;;5013116;28;20559;-52
2023/05/20 07:39:00;;;;;;;3.63;2.80;;;16.60;65.10;;;;;;5013238;28;20204;-50
2023/05/20 07:41:33;;;;;;;3.75;3.30;;;16.60;65.10;;;;;;5012823;28;20406;-50
2023/05/20 07:44:07;;;;;;;3.08;2.63;;;16.60;65.10;;;;;;5013143;28;20201;-52
2023/05/20 07:46:39;;;;;;;3.10;2.60;;;16.60;65.00;;;;;;5012944;28;20208;-53
2023/05/20 07:49:09;;;;;;;2.50;2.30;;;16.60;65.00;;;;;;5012569;28;20201;-51
2023/05/20 07:51:40;;;;;;;3.35;2.15;;;16.60;65.00;;;;;;5012606;28;20232;-51
2023/05/20 07:54:11;;;;;;;2.90;2.60;;;16.60;65.10;;;;;;5012535;28;20201;-53
2023/05/20 07:56:43;;;;;;;2.85;2.60;;;16.60;65.10;;;;;;5012196;28;20216;-53
2023/05/20 07:59:14;;;;;;;2.85;2.58;;;16.60;65.00;;;;;;5012399;28;20710;-51
2023/05/20 08:01:45;;;;;;;3.08;2.72;;;16.60;65.00;;;;;;5012791;28;20193;-52
2023/05/20 08:04:15;;;;;;;2.97;2.60;;;16.60;65.00;;;;;;5012647;28;20204;-53
2023/05/20 08:06:46;;;;;;;2.63;2.35;;;16.60;65.00;;;;;;5012662;28;20205;-52
2023/05/20 08:09:16;;;;;;;3.13;2.83;;;16.60;65.00;;;;;;5011466;28;20205;-52
2023/05/20 08:11:49;;;;;;;3.90;2.75;;;16.60;65.00;;;;;;5012417;28;20225;-53
2023/05/20 08:14:20;;;;;;;3.33;2.63;;;16.60;64.90;;;;;;5012615;28;20201;-59
2023/05/20 08:16:50;;;;;;;2.60;2.40;;;16.60;64.90;;;;;;5012461;28;20197;-56
2023/05/20 08:19:21;;;;;;;2.72;2.53;;;16.60;64.90;;;;;;5011954;28;20200;-55
2023/05/20 08:21:55;;;;;;;2.60;2.40;;;16.60;64.90;;;;;;5012607;28;20204;-53
2023/05/20 08:24:26;;;;;;;4.20;2.85;;;16.60;64.80;;;;;;5012126;28;20246;-58
2023/05/20 08:26:58;;;;;;;2.95;2.65;;;16.60;64.80;;;;;;5012383;28;20221;-53
2023/05/20 08:29:29;;;;;;;3.53;2.75;;;16.60;64.80;;;;;;5012203;28;20224;-52
2023/05/20 08:32:00;;;;;;;2.53;2.33;;;16.60;64.80;;;;;;5011669;28;20232;-54
2023/05/20 08:34:30;;;;;;;2.47;2.28;;;16.60;64.80;;;;;;5011813;28;20208;-55
2023/05/20 08:37:01;;;;;;;2.83;2.55;;;16.60;64.80;;;;;;5010938;28;20193;-56
2023/05/20 08:39:32;;;;;;;2.38;2.17;;;16.60;64.90;;;;;;5011218;28;20221;-54
2023/05/20 08:42:05;;;;;;;2.67;2.45;;;16.60;64.90;;;;;;5011674;28;20197;-57
2023/05/20 08:44:37;;;;;;;2.97;2.70;;;16.60;64.90;;;;;;5011684;28;20205;-58
2023/05/20 08:47:09;;;;;;;2.58;2.20;;;16.60;65.50;;;;;;5011926;28;20193;-58
2023/05/20 08:49:40;;;;;;;2.90;2.45;;;16.60;64.70;;;;;;5015367;28;20231;-54
2023/05/20 08:52:13;;;;;;;2.97;2.63;;;16.60;64.70;;;;;;5029939;28;20228;-56
2023/05/20 08:54:46;;;;;;;2.72;2.53;;;16.60;64.70;;;;;;5031603;28;20196;-55
2023/05/20 08:57:19;;;;;;;3.30;2.40;;;16.60;64.70;;;;;;5031480;28;20278;-59
2023/05/20 08:59:50;;;;;;;3.05;2.45;;;16.60;64.70;;;;;;5031259;28;20219;-55
2023/05/20 09:02:21;;;;;;;3.25;2.47;;;16.60;64.90;;;;;;5031525;28;20200;-57
2023/05/20 09:04:52;;;;;;;4.47;2.60;;;16.60;65.10;;;;;;5031242;28;20199;-57
2023/05/20 09:07:30;;;;;;;3.22;2.22;;;16.60;65.10;;;;;;5020217;28;20192;-58
2023/05/20 09:10:01;;;;;;;3.67;2.00;;;16.60;65.20;;;;;;5011318;28;20231;-58
2023/05/20 09:12:34;;;;;;;2.75;2.47;;;16.60;65.10;;;;;;5011293;28;20235;-50
2023/05/20 09:15:04;;;;;;;2.05;1.92;;;16.60;65.10;;;;;;5011287;28;20657;-54
2023/05/20 09:17:37;;;;;;;2.85;2.40;;;16.60;65.00;;;;;;5011298;28;20192;-50
2023/05/20 09:20:10;;;;;;;3.50;2.55;;;16.60;65.00;;;;;;5010956;28;20221;-51
2023/05/20 09:22:42;;;;;;;2.72;2.40;;;16.60;65.00;;;;;;5011532;28;20193;-54
2023/05/20 09:25:13;;;;;;;2.58;2.38;;;16.60;64.90;;;;;;5011208;28;20193;-51
2023/05/20 09:27:45;;;;;;;2.97;2.60;;;16.60;64.90;;;;;;5011087;28;20243;-51
2023/05/20 09:30:16;;;;;;;3.13;2.30;;;16.60;64.90;;;;;;5010818;28;20204;-54
2023/05/20 09:32:47;;;;;;;2.50;1.90;;;16.60;64.80;;;;;;5010425;28;20704;-52
2023/05/20 09:35:18;;;;;;;2.35;2.15;;;16.60;64.80;;;;;;5009721;28;20558;-53
2023/05/20 09:37:50;;;;;;;2.97;2.03;;;16.60;64.70;;;;;;5010708;28;20227;-54
2023/05/20 09:40:22;;;;;;;2.50;2.30;;;16.60;64.70;;;;;;5010386;28;20227;-55
2023/05/20 09:42:58;;;;;;;3.25;2.20;;;16.60;64.70;;;;;;5009932;28;20185;-55
2023/05/20 09:45:28;;;;;;;2.75;2.15;;;16.60;64.60;;;;;;5008457;28;20195;-55
2023/05/20 09:48:01;;;;;;;2.67;2.20;;;16.60;65.30;;;;;;5012084;28;20223;-52
2023/05/20 09:50:33;;;;;;;3.33;2.20;;;16.60;64.60;;;;;;5012762;28;20216;-52
2023/05/20 09:53:06;;;;;;;2.85;2.30;;;16.60;64.60;;;;;;5014476;28;20688;-54
2023/05/20 09:55:37;;;;;;;3.30;2.30;;;16.60;64.50;;;;;;5014401;28;20547;-49
2023/05/20 09:58:11;;;;;;;2.47;2.28;;;16.60;64.60;;;;;;5014636;28;20193;-51
2023/05/20 10:00:41;;;;;;;2.47;2.13;;;16.60;64.60;;;;;;5014619;28;20292;-52
2023/05/20 10:03:12;;;;;;;2.47;2.20;;;16.60;65.30;;;;;;5014095;28;20204;-50
2023/05/20 10:05:46;;;;;;;2.22;2.03;;;16.60;64.60;;;;;;5014252;28;20256;-51
2023/05/20 10:08:34;;;;;;;2.63;2.13;;;16.60;64.60;;;;;;5014308;28;20199;-52
2023/05/20 10:11:14;;;;;;;2.92;2.00;;;16.60;64.50;;;;;;5013573;28;20212;-54
2023/05/20 10:14:10;;;;;;;2.25;2.05;;;16.60;64.50;;;;;;5014107;28;20568;-51
2023/05/20 10:16:49;;;;;;;2.85;2.30;;;16.60;64.40;;;;;;5015089;28;20204;-52
2023/05/20 10:19:29;;;;;;;3.25;2.20;;;16.60;64.30;;;;;;5013634;28;20917;-52
2023/05/20 10:22:04;;;;;;;3.53;1.80;;;16.60;64.30;;;;;;5013202;28;20277;-54
2023/05/20 10:24:36;;;;;;;2.42;2.00;;;16.60;64.30;;;;;;5012287;28;20192;-56
2023/05/20 10:27:10;;;;;;;3.17;2.30;;;16.60;64.30;;;;;;5013362;28;20255;-51
2023/05/20 10:29:52;;;;;;;2.28;2.08;;;16.60;64.30;;;;;;5013054;28;20560;-54
2023/05/20 10:32:30;;;;;;;2.47;2.22;;;16.60;64.40;;;;;;5013272;28;20620;-50
2023/05/20 10:35:04;;;;;;;2.40;2.05;;;16.60;64.30;;;;;;5013584;28;20192;-51
2023/05/20 10:37:41;;;;;;;2.30;2.10;;;16.60;64.40;;;;;;5013710;28;20230;-50
2023/05/20 10:40:14;;;;;;;2.40;1.90;;;16.60;64.30;;;;;;5011884;28;20212;-54
2023/05/20 10:42:46;;;;;;;2.80;2.30;;;16.60;64.40;;;;;;5013817;28;20193;-52
2023/05/20 10:45:31;;;;;;;2.30;2.10;;;16.60;64.40;;;;;;5013532;28;20185;-54
2023/05/20 10:48:02;;;;;;;2.20;2.00;;;16.60;64.40;;;;;;5012949;28;20662;-51
2023/05/20 10:50:37;;;;;;;2.45;2.08;;;16.60;64.30;;;;;;5013362;28;20300;-50
2023/05/20 10:53:09;;;;;;;2.60;1.90;;;16.60;64.30;;;;;;5011378;28;20216;-52
2023/05/20 10:55:40;;;;;;;4.32;2.20;;;16.60;64.30;;;;;;5013610;28;20197;-53
2023/05/20 10:58:13;;;;;;;2.38;2.00;;;16.60;64.20;;;;;;5011372;28;20191;-52
2023/05/20 11:00:46;;;;;;;2.28;2.00;;;16.60;64.20;;;;;;5012567;28;20216;-53
2023/05/20 11:03:17;;;;;;;2.28;1.90;;;16.60;64.20;;;;;;5013424;28;20193;-54
2023/05/20 11:05:48;;;;;;;2.20;1.88;;;16.60;64.20;;;;;;5013156;28;20247;-53
2023/05/20 11:08:19;;;;;;;2.50;2.13;;;16.60;64.20;;;;;;5012444;28;20217;-54
2023/05/20 11:10:50;;;;;;;2.50;2.30;;;16.60;64.20;;;;;;5010061;28;20212;-51
2023/05/20 11:13:20;;;;;;;2.88;2.00;;;16.60;64.20;;;;;;5012461;28;20225;-53
2023/05/20 11:15:54;;;;;;;2.38;2.08;;;16.60;64.20;;;;;;5012652;28;20189;-56
2023/05/20 11:18:24;;;;;;;1.85;1.70;;;16.60;64.20;;;;;;5012521;28;20648;-52
2023/05/20 11:20:55;;;;;;;3.85;1.98;;;16.60;64.20;;;;;;5012210;28;20681;-57
2023/05/20 11:23:26;;;;;;;2.00;1.80;;;16.60;64.20;;;;;;5012477;28;20188;-56
2023/05/20 11:25:57;;;;;;;2.20;1.58;;;16.70;64.30;;;;;;5012688;28;20197;-56
2023/05/20 11:28:28;;;;;;;2.10;1.90;;;16.60;64.20;;;;;;5011132;28;20188;-53
2023/05/20 11:31:01;;;;;;;2.28;2.08;;;16.70;64.20;;;;;;5012749;28;20212;-56
2023/05/20 11:33:32;;;;;;;2.45;1.90;;;16.70;64.20;;;;;;5012922;28;20562;-50
2023/05/20 11:36:04;;;;;;;1.70;1.60;;;16.60;64.10;;;;;;5012578;28;20566;-57
2023/05/20 11:38:35;;;;;;;2.30;1.90;;;16.70;64.10;;;;;;5013076;28;20200;-55
2023/05/20 11:41:06;;;;;;;2.60;1.85;;;16.70;64.10;;;;;;5012715;28;20216;-54
2023/05/20 11:43:37;;;;;;;2.00;1.80;;;16.70;64.10;;;;;;5012711;28;20196;-55
2023/05/20 11:46:11;;;;;;;2.40;1.90;;;16.70;64.10;;;;;;5013022;28;20593;-53
2023/05/20 11:48:43;;;;;;;2.45;1.85;;;16.70;64.00;;;;;;5012653;28;20757;-54
2023/05/20 11:51:14;;;;;;;1.75;1.65;;;16.70;64.00;;;;;;5012031;28;20225;-51
2023/05/20 11:53:48;;;;;;;2.30;2.10;;;16.70;64.10;;;;;;5012316;28;20224;-52
2023/05/20 11:56:20;;;;;;;2.00;1.80;;;16.70;64.10;;;;;;5012972;28;20205;-57
2023/05/20 11:58:51;;;;;;;1.88;1.60;;;16.70;64.10;;;;;;5013022;28;20201;-55
2023/05/20 12:01:23;;;;;;;2.45;1.60;;;16.70;64.10;;;;;;5013012;28;20593;-59
2023/05/20 12:03:54;;;;;;;2.83;2.03;;;16.70;64.10;;;;;;5012777;28;20200;-56
2023/05/20 12:06:24;;;;;;;1.95;1.60;;;16.70;64.10;;;;;;5012997;28;20208;-55
2023/05/20 12:08:55;;;;;;;2.92;1.80;;;16.70;64.00;;;;;;5012256;28;20534;-52
2023/05/20 12:11:25;;;;;;;2.70;1.83;;;16.70;64.00;;;;;;5010876;28;20220;-52
2023/05/20 12:13:56;;;;;;;1.67;1.58;;;16.70;64.00;;;;;;5012354;28;20225;-52
2023/05/20 12:16:29;;;;;;;1.80;1.70;;;16.70;64.00;;;;;;5012451;28;20208;-55
2023/05/20 12:18:59;;;;;;;1.75;1.45;;;16.70;64.00;;;;;;5012400;28;20200;-54
2023/05/20 12:21:30;;;;;;;2.53;1.85;;;16.70;64.00;;;;;;5012259;28;20217;-53
2023/05/20 12:24:04;;;;;;;1.90;1.70;;;16.70;64.00;;;;;;5011793;28;20200;-57
2023/05/20 12:26:34;;;;;;;2.30;1.95;;;16.70;63.90;;;;;;5011544;28;20275;-52
2023/05/20 12:29:05;;;;;;;2.22;1.70;;;16.70;63.90;;;;;;5012313;28;20205;-54
2023/05/20 12:31:38;;;;;;;1.88;1.50;;;16.70;64.60;;;;;;5011678;28;20193;-53
2023/05/20 12:34:08;;;;;;;2.45;1.80;;;16.70;63.90;;;;;;5011929;28;20653;-53
2023/05/20 12:36:39;;;;;;;3.00;1.60;;;16.70;63.90;;;;;;5011946;28;20593;-51
2023/05/20 12:39:11;;;;;;;1.80;1.60;;;16.70;63.90;;;;;;5011563;28;20219;-54
2023/05/20 12:41:41;;;;;;;2.13;1.50;;;16.70;63.90;;;;;;5011660;28;20200;-52
2023/05/20 12:44:12;;;;;;;1.80;1.60;;;16.70;63.90;;;;;;5011261;28;20703;-54
2023/05/20 12:46:45;;;;;;;2.85;1.50;;;16.70;63.90;;;;;;5011323;28;20203;-49
2023/05/20 12:49:16;;;;;;;1.67;1.58;;;16.70;63.90;;;;;;5011328;28;20304;-50
2023/05/20 12:51:46;;;;;;;2.00;1.67;;;16.70;63.90;;;;;;5011984;28;20219;-49
2023/05/20 12:54:18;;;;;;;1.95;1.52;;;16.70;63.90;;;;;;5011952;28;20658;-50
2023/05/20 12:56:49;;;;;;;1.90;1.70;;;16.70;63.80;;;;;;5011811;28;20205;-55
2023/05/20 12:59:19;;;;;;;2.20;1.50;;;16.70;63.80;;;;;;5011901;28;20193;-48
2023/05/20 13:01:52;;;;;;;1.52;1.40;;;16.70;63.90;;;;;;5011798;28;20563;-49
2023/05/20 13:04:23;;;;;;;1.70;1.23;;;16.70;63.80;;;;;;5011410;28;20197;-49
2023/05/20 13:06:54;;;;;;;1.35;1.20;;;16.70;63.80;;;;;;5011941;28;20204;-49
2023/05/20 13:09:24;;;;;;;1.88;1.58;;;16.70;63.70;;;;;;5011756;28;20200;-49